createdAt,value
2022-12-31T00:00:08.472Z,9.60
2022-12-31T00:01:08.421Z,8.40
2022-12-31T00:02:08.511Z,10.60
2022-12-31T00:03:08.536Z,10.50
2022-12-31T00:04:08.413Z,10.20
2022-12-31T00:05:08.377Z,10.50
2022-12-31T00:06:08.369Z,8.10
2022-12-31T00:07:08.384Z,8.30
2022-12-31T00:08:08.355Z,8.90
2022-12-31T00:09:08.355Z,8.00
2022-12-31T00:10:08.343Z,10.20
2022-12-31T00:11:08.323Z,9.20
2022-12-31T00:12:08.296Z,9.00
2022-12-31T00:13:08.292Z,12.20
2022-12-31T00:14:08.295Z,9.00
2022-12-31T00:15:08.300Z,11.20
2022-12-31T00:16:11.993Z,9.90
2022-12-31T00:17:08.296Z,12.40
2022-12-31T00:18:08.235Z,11.40
2022-12-31T00:19:08.248Z,9.30
2022-12-31T00:20:08.204Z,11.50
2022-12-31T00:21:08.206Z,10.10
2022-12-31T00:22:08.240Z,11.60
2022-12-31T00:23:08.181Z,10.70
2022-12-31T00:24:08.199Z,12.10
2022-12-31T00:25:08.155Z,10.60
2022-12-31T00:26:08.153Z,10.50
2022-12-31T00:27:08.129Z,11.20
2022-12-31T00:28:08.131Z,10.10
2022-12-31T00:29:08.123Z,10.70
2022-12-31T00:30:08.102Z,9.50
2022-12-31T00:31:08.297Z,10.60
2022-12-31T00:32:08.085Z,11.70
2022-12-31T00:33:08.076Z,11.20
2022-12-31T00:34:08.082Z,10.70
2022-12-31T00:35:08.079Z,11.50
2022-12-31T00:36:08.036Z,9.10
2022-12-31T00:37:08.027Z,9.40
2022-12-31T00:38:08.023Z,10.40
2022-12-31T00:39:08.055Z,11.00
2022-12-31T00:40:07.989Z,8.80
2022-12-31T00:41:07.984Z,12.10
2022-12-31T00:42:07.987Z,8.90
2022-12-31T00:43:07.973Z,8.60
2022-12-31T00:44:07.972Z,8.40
2022-12-31T00:45:07.952Z,7.90
2022-12-31T00:46:07.973Z,9.90
2022-12-31T00:47:07.917Z,9.40
2022-12-31T00:48:07.916Z,11.60
2022-12-31T00:49:07.909Z,9.50
2022-12-31T00:50:07.879Z,8.70
2022-12-31T00:51:07.866Z,10.30
2022-12-31T00:52:07.858Z,11.20
2022-12-31T00:53:07.855Z,8.00
2022-12-31T00:54:07.849Z,10.30
2022-12-31T00:55:07.824Z,11.40
2022-12-31T00:56:07.810Z,9.90
2022-12-31T00:57:07.803Z,9.30
2022-12-31T00:58:07.793Z,9.40
2022-12-31T00:59:07.783Z,7.40
2022-12-31T01:00:07.794Z,10.70
2022-12-31T01:01:07.893Z,8.60
2022-12-31T01:02:07.912Z,8.50
2022-12-31T01:03:07.837Z,6.90
2022-12-31T01:04:07.738Z,8.10
2022-12-31T01:05:07.726Z,6.90
2022-12-31T01:06:07.701Z,7.50
2022-12-31T01:07:07.692Z,7.80
2022-12-31T01:08:07.677Z,9.20
2022-12-31T01:09:07.673Z,9.50
2022-12-31T01:10:07.674Z,6.60
2022-12-31T01:11:07.650Z,7.90
2022-12-31T01:12:07.639Z,9.80
2022-12-31T01:13:07.620Z,7.80
2022-12-31T01:14:07.612Z,6.30
2022-12-31T01:15:07.630Z,6.10
2022-12-31T01:16:07.629Z,7.90
2022-12-31T01:17:07.611Z,7.20
2022-12-31T01:18:07.563Z,7.60
2022-12-31T01:19:07.579Z,8.00
2022-12-31T01:20:07.556Z,7.90
2022-12-31T01:21:07.571Z,6.80
2022-12-31T01:22:07.523Z,7.50
2022-12-31T01:23:07.542Z,6.40
2022-12-31T01:24:07.507Z,5.80
2022-12-31T01:25:07.534Z,7.50
2022-12-31T01:26:07.479Z,6.60
2022-12-31T01:27:07.595Z,5.90
2022-12-31T01:28:07.460Z,6.40
2022-12-31T01:29:07.534Z,8.90
2022-12-31T01:30:07.454Z,6.20
2022-12-31T01:31:07.604Z,7.00
2022-12-31T01:32:07.409Z,6.50
2022-12-31T01:33:07.456Z,7.30
2022-12-31T01:34:07.402Z,8.20
2022-12-31T01:35:07.448Z,7.00
2022-12-31T01:36:07.372Z,5.30
2022-12-31T01:37:07.356Z,8.00
2022-12-31T01:38:07.342Z,7.30
2022-12-31T01:39:07.332Z,5.60
2022-12-31T01:40:07.336Z,7.00
2022-12-31T01:41:07.310Z,6.90
2022-12-31T01:42:07.303Z,8.50
2022-12-31T01:43:07.294Z,5.90
2022-12-31T01:44:07.273Z,7.10
2022-12-31T01:45:07.297Z,7.20
2022-12-31T01:46:07.278Z,7.40
2022-12-31T01:47:07.246Z,7.60
2022-12-31T01:48:07.235Z,6.90
2022-12-31T01:49:07.228Z,5.50
2022-12-31T01:50:07.217Z,6.60
2022-12-31T01:51:07.188Z,6.40
2022-12-31T01:52:07.201Z,6.50
2022-12-31T01:53:07.182Z,6.10
2022-12-31T01:54:07.163Z,5.90
2022-12-31T01:55:07.163Z,8.10
2022-12-31T01:56:07.138Z,8.40
2022-12-31T01:57:07.138Z,6.90
2022-12-31T01:58:07.120Z,7.30
2022-12-31T01:59:07.115Z,7.00
2022-12-31T02:00:07.122Z,7.40
2022-12-31T02:01:07.104Z,5.80
2022-12-31T02:02:07.196Z,7.40
2022-12-31T02:03:07.158Z,6.50
2022-12-31T02:04:07.062Z,5.40
2022-12-31T02:05:07.067Z,6.10
2022-12-31T02:06:07.033Z,5.40
2022-12-31T02:07:07.070Z,7.20
2022-12-31T02:08:07.005Z,7.50
2022-12-31T02:09:06.998Z,8.50
2022-12-31T02:10:07.005Z,5.90
2022-12-31T02:11:06.982Z,6.90
2022-12-31T02:12:06.967Z,6.30
2022-12-31T02:13:06.963Z,7.20
2022-12-31T02:14:06.944Z,9.00
2022-12-31T02:15:06.950Z,6.80
2022-12-31T02:16:06.996Z,7.20
2022-12-31T02:17:06.916Z,7.20
2022-12-31T02:18:06.919Z,7.60
2022-12-31T02:19:06.888Z,8.20
2022-12-31T02:20:06.904Z,6.50
2022-12-31T02:21:06.908Z,8.70
2022-12-31T02:22:06.860Z,11.40
2022-12-31T02:23:06.858Z,9.90
2022-12-31T02:24:06.836Z,7.20
2022-12-31T02:25:06.837Z,7.20
2022-12-31T02:26:06.806Z,9.30
2022-12-31T02:27:06.800Z,9.10
2022-12-31T02:28:06.804Z,6.80
2022-12-31T02:29:06.778Z,9.50
2022-12-31T02:30:06.815Z,7.80
2022-12-31T02:31:06.838Z,9.80
2022-12-31T02:32:06.754Z,8.40
2022-12-31T02:33:06.732Z,10.00
2022-12-31T02:34:06.727Z,9.00
2022-12-31T02:35:06.728Z,9.20
2022-12-31T02:36:06.707Z,9.40
2022-12-31T02:37:06.693Z,9.90
2022-12-31T02:38:06.808Z,8.90
2022-12-31T02:39:06.672Z,11.10
2022-12-31T02:40:06.692Z,9.20
2022-12-31T02:41:06.657Z,9.80
2022-12-31T02:42:06.649Z,11.50
2022-12-31T02:43:06.672Z,53.30
2022-12-31T02:44:06.618Z,8.00
2022-12-31T02:45:06.634Z,13.00
2022-12-31T02:46:06.637Z,11.30
2022-12-31T02:47:06.586Z,7.40
2022-12-31T02:48:06.573Z,6.70
2022-12-31T02:49:07.405Z,12.00
2022-12-31T02:50:06.569Z,11.90
2022-12-31T02:51:06.537Z,11.60
2022-12-31T02:52:06.532Z,9.50
2022-12-31T02:53:06.526Z,10.90
2022-12-31T02:54:06.505Z,12.50
2022-12-31T02:55:06.512Z,8.70
2022-12-31T02:56:06.490Z,6.90
2022-12-31T02:57:06.486Z,7.10
2022-12-31T02:58:06.476Z,10.80
2022-12-31T02:59:06.456Z,8.30
2022-12-31T03:00:06.457Z,8.20
2022-12-31T03:01:06.532Z,18.00
2022-12-31T03:02:06.507Z,18.60
2022-12-31T03:03:06.411Z,9.00
2022-12-31T03:04:06.398Z,10.60
2022-12-31T03:05:06.400Z,55.40
2022-12-31T03:06:06.384Z,10.60
2022-12-31T03:07:06.390Z,8.00
2022-12-31T03:08:06.356Z,7.40
2022-12-31T03:09:06.352Z,6.70
2022-12-31T03:10:06.378Z,9.90
2022-12-31T03:11:06.324Z,10.90
2022-12-31T03:12:06.310Z,11.20
2022-12-31T03:13:06.305Z,10.90
2022-12-31T03:14:06.315Z,8.70
2022-12-31T03:15:06.277Z,9.20
2022-12-31T03:16:06.329Z,7.30
2022-12-31T03:17:06.259Z,7.30
2022-12-31T03:18:06.256Z,8.00
2022-12-31T03:19:06.236Z,7.10
2022-12-31T03:20:06.239Z,8.60
2022-12-31T03:21:06.237Z,11.50
2022-12-31T03:22:06.203Z,8.20
2022-12-31T03:23:06.191Z,7.60
2022-12-31T03:24:06.176Z,10.20
2022-12-31T03:25:06.165Z,10.00
2022-12-31T03:26:06.179Z,7.10
2022-12-31T03:27:06.153Z,9.30
2022-12-31T03:28:06.143Z,9.80
2022-12-31T03:29:06.121Z,10.70
2022-12-31T03:30:06.116Z,12.30
2022-12-31T03:31:06.171Z,27.20
2022-12-31T03:32:06.091Z,8.60
2022-12-31T03:33:06.086Z,11.90
2022-12-31T03:34:06.070Z,10.60
2022-12-31T03:35:06.063Z,9.50
2022-12-31T03:36:06.076Z,10.40
2022-12-31T03:37:06.055Z,10.00
2022-12-31T03:38:06.022Z,9.50
2022-12-31T03:39:06.031Z,8.80
2022-12-31T03:40:06.010Z,9.50
2022-12-31T03:41:06.017Z,10.70
2022-12-31T03:42:05.991Z,12.50
2022-12-31T03:43:05.973Z,10.50
2022-12-31T03:44:05.967Z,9.30
2022-12-31T03:45:05.975Z,8.10
2022-12-31T03:46:06.018Z,8.30
2022-12-31T03:47:05.944Z,11.30
2022-12-31T03:48:05.928Z,11.10
2022-12-31T03:49:05.916Z,10.90
2022-12-31T03:50:05.898Z,10.70
2022-12-31T03:51:05.916Z,9.70
2022-12-31T03:52:05.879Z,10.30
2022-12-31T03:53:05.886Z,11.90
2022-12-31T03:54:05.867Z,11.10
2022-12-31T03:55:05.845Z,12.90
2022-12-31T03:56:05.852Z,13.80
2022-12-31T03:57:05.829Z,10.00
2022-12-31T03:58:05.817Z,11.20
2022-12-31T03:59:05.804Z,19.80
2022-12-31T04:00:05.793Z,15.80
2022-12-31T04:01:05.908Z,13.30
2022-12-31T04:02:05.883Z,11.00
2022-12-31T04:03:05.828Z,8.60
2022-12-31T04:04:05.745Z,13.20
2022-12-31T04:05:05.737Z,25.70
2022-12-31T04:06:05.739Z,8.70
2022-12-31T04:07:05.718Z,8.30
2022-12-31T04:08:05.707Z,9.10
2022-12-31T04:09:05.699Z,9.80
2022-12-31T04:10:05.677Z,11.90
2022-12-31T04:11:05.689Z,8.90
2022-12-31T04:12:05.659Z,11.40
2022-12-31T04:13:05.649Z,9.80
2022-12-31T04:14:05.639Z,12.80
2022-12-31T04:15:05.628Z,14.10
2022-12-31T04:16:05.698Z,15.50
2022-12-31T04:17:05.611Z,9.40
2022-12-31T04:18:05.595Z,7.10
2022-12-31T04:19:05.588Z,12.10
2022-12-31T04:20:05.588Z,9.20
2022-12-31T04:21:05.594Z,12.50
2022-12-31T04:22:05.561Z,7.50
2022-12-31T04:23:05.548Z,12.40
2022-12-31T04:24:05.536Z,15.60
2022-12-31T04:25:05.521Z,7.70
2022-12-31T04:26:05.525Z,16.60
2022-12-31T04:27:07.841Z,9.40
2022-12-31T04:28:05.481Z,11.60
2022-12-31T04:29:05.480Z,11.70
2022-12-31T04:30:05.470Z,12.20
2022-12-31T04:31:05.479Z,7.80
2022-12-31T04:32:05.508Z,9.90
2022-12-31T04:33:05.431Z,13.20
2022-12-31T04:34:05.414Z,13.10
2022-12-31T04:35:05.415Z,14.00
2022-12-31T04:36:05.414Z,12.00
2022-12-31T04:37:05.389Z,41.50
2022-12-31T04:38:05.374Z,24.00
2022-12-31T04:39:05.375Z,28.60
2022-12-31T04:40:06.566Z,104.90
2022-12-31T04:41:05.352Z,36.00
2022-12-31T04:42:05.344Z,12.30
2022-12-31T04:43:05.322Z,10.60
2022-12-31T04:44:05.306Z,9.90
2022-12-31T04:45:05.294Z,36.80
2022-12-31T04:46:05.324Z,62.20
2022-12-31T04:47:05.292Z,33.50
2022-12-31T04:48:05.270Z,8.30
2022-12-31T04:49:05.255Z,11.70
2022-12-31T04:50:05.250Z,13.60
2022-12-31T04:51:05.245Z,12.20
2022-12-31T04:52:05.227Z,15.90
2022-12-31T04:53:05.215Z,24.00
2022-12-31T04:54:05.205Z,30.10
2022-12-31T04:55:05.193Z,66.40
2022-12-31T04:56:05.190Z,31.20
2022-12-31T04:57:05.165Z,12.20
2022-12-31T04:58:05.155Z,15.40
2022-12-31T04:59:05.165Z,11.40
2022-12-31T05:00:05.133Z,9.90
2022-12-31T05:01:05.339Z,11.00
2022-12-31T05:02:05.336Z,16.30
2022-12-31T05:03:05.142Z,12.30
2022-12-31T05:04:05.095Z,9.90
2022-12-31T05:05:05.081Z,10.20
2022-12-31T05:06:05.092Z,8.60
2022-12-31T05:07:05.068Z,10.60
2022-12-31T05:08:05.055Z,9.80
2022-12-31T05:09:05.047Z,9.00
2022-12-31T05:10:05.027Z,12.10
2022-12-31T05:11:05.039Z,8.90
2022-12-31T05:12:05.016Z,7.50
2022-12-31T05:13:05.004Z,7.50
2022-12-31T05:14:04.991Z,7.30
2022-12-31T05:15:04.975Z,10.60
2022-12-31T05:16:04.982Z,9.90
2022-12-31T05:17:05.005Z,7.20
2022-12-31T05:18:04.942Z,8.50
2022-12-31T05:19:04.933Z,11.90
2022-12-31T05:20:04.917Z,14.20
2022-12-31T05:21:04.929Z,10.50
2022-12-31T05:22:04.905Z,6.80
2022-12-31T05:23:04.894Z,26.30
2022-12-31T05:24:04.888Z,6.30
2022-12-31T05:25:04.878Z,22.00
2022-12-31T05:26:04.880Z,19.00
2022-12-31T05:27:04.850Z,19.00
2022-12-31T05:28:04.851Z,10.10
2022-12-31T05:29:04.825Z,11.40
2022-12-31T05:30:04.813Z,36.30
2022-12-31T05:31:04.862Z,42.90
2022-12-31T05:32:04.791Z,27.60
2022-12-31T05:33:04.785Z,33.80
2022-12-31T05:34:04.767Z,12.30
2022-12-31T05:35:04.752Z,10.30
2022-12-31T05:36:04.780Z,6.80
2022-12-31T05:37:04.737Z,4.90
2022-12-31T05:38:04.718Z,8.40
2022-12-31T05:39:04.727Z,7.60
2022-12-31T05:40:04.705Z,4.50
2022-12-31T05:41:04.710Z,5.20
2022-12-31T05:42:04.692Z,8.00
2022-12-31T05:43:04.676Z,6.50
2022-12-31T05:44:04.656Z,5.40
2022-12-31T05:45:04.653Z,4.00
2022-12-31T05:46:04.742Z,5.90
2022-12-31T05:47:04.628Z,5.10
2022-12-31T05:48:04.623Z,5.40
2022-12-31T05:49:04.606Z,3.30
2022-12-31T05:50:04.597Z,5.60
2022-12-31T05:51:04.613Z,4.80
2022-12-31T05:52:04.566Z,5.50
2022-12-31T05:53:04.565Z,3.20
2022-12-31T05:54:04.553Z,4.30
2022-12-31T05:55:04.538Z,5.10
2022-12-31T05:56:04.554Z,5.10
2022-12-31T05:57:04.520Z,6.50
2022-12-31T05:58:04.509Z,2.30
2022-12-31T05:59:04.494Z,3.20
2022-12-31T06:00:04.490Z,3.70
2022-12-31T06:01:04.499Z,3.00
2022-12-31T06:02:04.500Z,6.70
2022-12-31T06:03:04.637Z,2.70
2022-12-31T06:04:04.555Z,3.20
2022-12-31T06:05:04.443Z,3.40
2022-12-31T06:06:04.414Z,4.20
2022-12-31T06:07:04.431Z,2.70
2022-12-31T06:08:04.400Z,3.20
2022-12-31T06:09:04.400Z,2.90
2022-12-31T06:10:04.388Z,2.30
2022-12-31T06:11:04.368Z,1.70
2022-12-31T06:12:04.379Z,2.20
2022-12-31T06:13:04.347Z,2.10
2022-12-31T06:14:04.332Z,2.60
2022-12-31T06:15:04.342Z,2.20
2022-12-31T06:16:04.338Z,2.00
2022-12-31T06:17:04.323Z,2.20
2022-12-31T06:18:04.290Z,1.40
2022-12-31T06:19:04.287Z,1.80
2022-12-31T06:20:13.356Z,2.30
2022-12-31T06:21:04.254Z,2.20
2022-12-31T06:22:04.271Z,3.00
2022-12-31T06:23:04.246Z,1.30
2022-12-31T06:24:04.226Z,2.10
2022-12-31T06:25:04.221Z,3.30
2022-12-31T06:26:04.226Z,2.30
2022-12-31T06:27:04.225Z,2.40
2022-12-31T06:28:04.201Z,2.20
2022-12-31T06:29:04.175Z,4.30
2022-12-31T06:30:04.162Z,2.30
2022-12-31T06:31:04.204Z,1.20
2022-12-31T06:32:04.160Z,2.90
2022-12-31T06:33:04.132Z,2.00
2022-12-31T06:34:04.116Z,4.90
2022-12-31T06:35:04.110Z,1.50
2022-12-31T06:36:04.094Z,2.30
2022-12-31T06:37:04.116Z,1.40
2022-12-31T06:38:04.078Z,1.30
2022-12-31T06:39:04.092Z,1.50
2022-12-31T06:40:04.082Z,2.00
2022-12-31T06:41:04.051Z,1.20
2022-12-31T06:42:04.116Z,1.50
2022-12-31T06:43:04.016Z,1.70
2022-12-31T06:44:04.041Z,1.90
2022-12-31T06:45:03.995Z,1.60
2022-12-31T06:46:07.910Z,1.90
2022-12-31T06:47:04.007Z,1.90
2022-12-31T06:48:03.968Z,1.20
2022-12-31T06:49:03.963Z,1.30
2022-12-31T06:50:03.976Z,2.10
2022-12-31T06:51:03.941Z,4.80
2022-12-31T06:52:03.937Z,3.30
2022-12-31T06:53:03.912Z,2.50
2022-12-31T06:54:03.907Z,0.70
2022-12-31T06:55:03.929Z,0.80
2022-12-31T06:56:03.886Z,0.80
2022-12-31T06:57:03.892Z,1.50
2022-12-31T06:58:03.864Z,3.30
2022-12-31T06:59:03.891Z,1.40
2022-12-31T07:00:03.842Z,4.10
2022-12-31T07:01:03.913Z,3.50
2022-12-31T07:02:03.887Z,2.00
2022-12-31T07:03:03.848Z,1.00
2022-12-31T07:04:03.796Z,1.40
2022-12-31T07:05:03.802Z,1.00
2022-12-31T07:06:03.810Z,0.80
2022-12-31T07:07:03.787Z,5.20
2022-12-31T07:08:03.756Z,4.70
2022-12-31T07:09:03.764Z,2.80
2022-12-31T07:10:03.731Z,1.70
2022-12-31T07:11:03.725Z,4.00
2022-12-31T07:12:03.742Z,10.00
2022-12-31T07:13:03.720Z,1.20
2022-12-31T07:14:03.700Z,2.30
2022-12-31T07:15:03.680Z,2.20
2022-12-31T07:16:03.707Z,1.10
2022-12-31T07:17:03.713Z,4.00
2022-12-31T07:18:03.638Z,4.20
2022-12-31T07:19:03.623Z,1.10
2022-12-31T07:20:03.619Z,0.90
2022-12-31T07:21:03.620Z,1.30
2022-12-31T07:22:03.612Z,2.00
2022-12-31T07:23:03.593Z,1.10
2022-12-31T07:24:03.621Z,0.90
2022-12-31T07:25:03.574Z,1.30
2022-12-31T07:26:03.566Z,2.60
2022-12-31T07:27:03.582Z,3.90
2022-12-31T07:28:03.532Z,2.40
2022-12-31T07:29:03.555Z,1.70
2022-12-31T07:30:03.514Z,2.20
2022-12-31T07:31:03.541Z,1.80
2022-12-31T07:32:03.534Z,3.80
2022-12-31T07:33:03.484Z,3.00
2022-12-31T07:34:03.468Z,2.20
2022-12-31T07:35:03.452Z,2.00
2022-12-31T07:36:03.452Z,3.10
2022-12-31T07:37:03.484Z,2.10
2022-12-31T07:38:03.433Z,1.30
2022-12-31T07:39:03.419Z,1.40
2022-12-31T07:40:03.417Z,0.90
2022-12-31T07:41:09.394Z,1.00
2022-12-31T07:42:03.414Z,1.60
2022-12-31T07:43:03.441Z,2.90
2022-12-31T07:44:03.360Z,2.20
2022-12-31T07:45:03.356Z,2.70
2022-12-31T07:46:03.354Z,2.10
2022-12-31T07:47:03.347Z,2.90
2022-12-31T07:48:03.375Z,4.50
2022-12-31T07:49:03.307Z,3.80
2022-12-31T07:50:03.282Z,3.10
2022-12-31T07:51:03.347Z,1.00
2022-12-31T07:52:03.297Z,2.60
2022-12-31T07:53:03.255Z,4.00
2022-12-31T07:54:06.375Z,3.10
2022-12-31T07:55:03.239Z,9.80
2022-12-31T07:56:03.231Z,2.20
2022-12-31T07:57:03.309Z,2.10
2022-12-31T07:58:03.208Z,2.80
2022-12-31T07:59:03.217Z,1.40
2022-12-31T08:00:03.190Z,2.40
2022-12-31T08:01:03.407Z,4.00
2022-12-31T08:02:03.324Z,4.00
2022-12-31T08:03:03.169Z,1.80
2022-12-31T08:04:03.140Z,2.90
2022-12-31T08:05:03.148Z,2.90
2022-12-31T08:06:03.136Z,2.60
2022-12-31T08:07:03.143Z,3.30
2022-12-31T08:08:03.101Z,2.80
2022-12-31T08:09:03.088Z,3.60
2022-12-31T08:10:03.075Z,2.90
2022-12-31T08:11:03.075Z,3.30
2022-12-31T08:12:03.074Z,3.70
2022-12-31T08:13:03.049Z,2.00
2022-12-31T08:14:03.031Z,5.00
2022-12-31T08:15:03.032Z,5.10
2022-12-31T08:16:03.067Z,8.30
2022-12-31T08:17:03.013Z,9.50
2022-12-31T08:18:02.990Z,4.40
2022-12-31T08:19:02.985Z,3.20
2022-12-31T08:20:03.009Z,10.80
2022-12-31T08:21:02.970Z,3.30
2022-12-31T08:22:02.971Z,4.20
2022-12-31T08:23:02.930Z,14.60
2022-12-31T08:24:02.940Z,14.60
2022-12-31T08:25:02.929Z,4.60
2022-12-31T08:26:02.928Z,5.30
2022-12-31T08:27:02.917Z,6.40
2022-12-31T08:28:02.888Z,12.30
2022-12-31T08:29:02.898Z,9.00
2022-12-31T08:30:02.876Z,4.50
2022-12-31T08:31:02.847Z,2.50
2022-12-31T08:32:02.907Z,3.50
2022-12-31T08:33:02.823Z,4.70
2022-12-31T08:34:06.001Z,4.10
2022-12-31T08:35:02.820Z,6.20
2022-12-31T08:36:02.796Z,4.40
2022-12-31T08:37:02.796Z,2.10
2022-12-31T08:38:02.786Z,2.90
2022-12-31T08:39:02.794Z,4.00
2022-12-31T08:40:02.753Z,2.90
2022-12-31T08:41:02.756Z,2.90
2022-12-31T08:42:02.743Z,2.10
2022-12-31T08:43:02.752Z,3.00
2022-12-31T08:44:02.715Z,2.30
2022-12-31T08:45:02.709Z,2.70
2022-12-31T08:46:02.753Z,3.60
2022-12-31T08:47:02.707Z,4.10
2022-12-31T08:48:02.716Z,3.60
2022-12-31T08:49:02.669Z,22.20
2022-12-31T08:50:02.688Z,3.20
2022-12-31T08:51:02.652Z,8.10
2022-12-31T08:52:02.674Z,4.80
2022-12-31T08:53:02.605Z,3.50
2022-12-31T08:54:02.601Z,5.20
2022-12-31T08:55:02.635Z,9.60
2022-12-31T08:56:02.576Z,17.90
2022-12-31T08:57:02.586Z,5.00
2022-12-31T08:58:02.574Z,3.50
2022-12-31T08:59:02.558Z,3.00
2022-12-31T09:00:02.532Z,3.20
2022-12-31T09:01:02.607Z,4.10
2022-12-31T09:02:02.687Z,3.60
2022-12-31T09:03:02.551Z,4.90
2022-12-31T09:04:02.510Z,3.40
2022-12-31T09:05:02.486Z,5.50
2022-12-31T09:06:02.499Z,5.40
2022-12-31T09:07:02.468Z,4.00
2022-12-31T09:08:02.448Z,4.50
2022-12-31T09:09:02.440Z,2.70
2022-12-31T09:10:02.429Z,4.40
2022-12-31T09:11:02.413Z,3.20
2022-12-31T09:12:02.420Z,5.00
2022-12-31T09:13:02.449Z,3.30
2022-12-31T09:14:02.379Z,2.50
2022-12-31T09:15:02.371Z,2.90
2022-12-31T09:16:02.369Z,4.40
2022-12-31T09:17:02.380Z,4.40
2022-12-31T09:18:02.354Z,4.60
2022-12-31T09:19:02.333Z,3.80
2022-12-31T09:20:02.345Z,3.70
2022-12-31T09:21:02.319Z,2.90
2022-12-31T09:22:02.337Z,3.20
2022-12-31T09:23:02.293Z,3.80
2022-12-31T09:24:08.979Z,3.90
2022-12-31T09:25:02.269Z,4.30
2022-12-31T09:26:02.266Z,3.80
2022-12-31T09:27:02.253Z,4.40
2022-12-31T09:28:02.243Z,3.50
2022-12-31T09:29:02.216Z,2.50
2022-12-31T09:30:02.220Z,4.70
2022-12-31T09:31:02.218Z,2.30
2022-12-31T09:32:02.290Z,2.50
2022-12-31T09:33:02.172Z,3.10
2022-12-31T09:34:02.162Z,4.50
2022-12-31T09:35:02.153Z,3.70
2022-12-31T09:36:02.181Z,2.30
2022-12-31T09:37:02.139Z,1.90
2022-12-31T09:38:06.475Z,5.00
2022-12-31T09:39:02.105Z,1.90
2022-12-31T09:40:02.100Z,2.10
2022-12-31T09:41:02.092Z,2.50
2022-12-31T09:42:02.081Z,3.10
2022-12-31T09:43:02.125Z,2.30
2022-12-31T09:44:02.056Z,3.40
2022-12-31T09:45:02.153Z,2.10
2022-12-31T09:46:02.117Z,2.50
2022-12-31T09:47:02.059Z,2.70
2022-12-31T09:48:02.063Z,1.70
2022-12-31T09:49:01.999Z,3.10
2022-12-31T09:50:02.004Z,2.60
2022-12-31T09:51:01.969Z,2.80
2022-12-31T09:52:01.955Z,2.40
2022-12-31T09:53:04.104Z,1.90
2022-12-31T09:54:07.610Z,2.60
2022-12-31T09:55:01.928Z,2.50
2022-12-31T09:56:01.934Z,3.90
2022-12-31T09:57:01.904Z,2.20
2022-12-31T09:58:01.944Z,2.40
2022-12-31T09:59:01.906Z,2.90
2022-12-31T10:00:01.882Z,3.60
2022-12-31T10:01:02.151Z,3.30
2022-12-31T10:02:02.025Z,3.60
2022-12-31T10:03:01.962Z,4.10
2022-12-31T10:04:01.836Z,2.20
2022-12-31T10:05:01.822Z,3.00
2022-12-31T10:06:01.810Z,1.70
2022-12-31T10:07:01.847Z,2.30
2022-12-31T10:08:01.820Z,1.80
2022-12-31T10:09:01.773Z,2.30
2022-12-31T10:10:01.793Z,3.70
2022-12-31T10:11:01.760Z,1.30
2022-12-31T10:12:01.744Z,2.60
2022-12-31T10:13:01.773Z,1.50
2022-12-31T10:14:01.723Z,1.40
2022-12-31T10:15:01.715Z,2.90
2022-12-31T10:16:01.734Z,1.60
2022-12-31T10:17:01.809Z,2.30
2022-12-31T10:18:01.695Z,1.80
2022-12-31T10:19:01.687Z,1.10
2022-12-31T10:20:01.651Z,1.20
2022-12-31T10:21:01.637Z,1.90
2022-12-31T10:22:01.635Z,1.80
2022-12-31T10:23:01.661Z,3.00
2022-12-31T10:24:01.625Z,2.50
2022-12-31T10:25:01.621Z,2.30
2022-12-31T10:26:01.605Z,2.20
2022-12-31T10:27:01.576Z,2.30
2022-12-31T10:28:01.599Z,1.60
2022-12-31T10:29:01.562Z,3.70
2022-12-31T10:30:01.551Z,1.90
2022-12-31T10:31:01.578Z,1.10
2022-12-31T10:32:01.519Z,1.20
2022-12-31T10:33:01.529Z,2.70
2022-12-31T10:34:01.521Z,1.20
2022-12-31T10:35:01.498Z,2.60
2022-12-31T10:36:01.485Z,1.90
2022-12-31T10:37:01.467Z,1.40
2022-12-31T10:38:01.484Z,2.10
2022-12-31T10:39:01.459Z,4.40
2022-12-31T10:40:01.470Z,2.90
2022-12-31T10:41:01.434Z,1.70
2022-12-31T10:42:01.422Z,1.50
2022-12-31T10:43:01.461Z,1.70
2022-12-31T10:44:01.397Z,2.50
2022-12-31T10:45:01.384Z,3.20
2022-12-31T10:46:01.413Z,1.70
2022-12-31T10:47:01.358Z,2.60
2022-12-31T10:48:01.369Z,2.30
2022-12-31T10:49:01.350Z,2.50
2022-12-31T10:50:01.322Z,2.50
2022-12-31T10:51:01.317Z,2.00
2022-12-31T10:52:01.305Z,1.40
2022-12-31T10:53:01.363Z,2.60
2022-12-31T10:54:01.273Z,1.00
2022-12-31T10:55:01.276Z,2.50
2022-12-31T10:56:01.263Z,2.00
2022-12-31T10:57:01.284Z,2.10
2022-12-31T10:58:04.320Z,2.30
2022-12-31T10:59:01.240Z,1.80
2022-12-31T11:00:01.228Z,1.90
2022-12-31T11:01:01.325Z,1.80
2022-12-31T11:02:01.299Z,1.40
2022-12-31T11:03:01.338Z,1.50
2022-12-31T11:04:01.190Z,3.00
2022-12-31T11:05:01.185Z,2.60
2022-12-31T11:06:01.155Z,1.90
2022-12-31T11:07:01.151Z,1.00
2022-12-31T11:08:01.142Z,1.20
2022-12-31T11:09:01.116Z,1.10
2022-12-31T11:10:01.106Z,1.40
2022-12-31T11:11:01.102Z,2.40
2022-12-31T11:12:01.089Z,2.60
2022-12-31T11:13:01.108Z,2.10
2022-12-31T11:14:01.093Z,1.00
2022-12-31T11:15:01.052Z,3.20
2022-12-31T11:16:01.063Z,1.30
2022-12-31T11:17:01.063Z,1.10
2022-12-31T11:18:01.054Z,2.60
2022-12-31T11:19:01.006Z,1.90
2022-12-31T11:20:00.999Z,3.50
2022-12-31T11:21:01.003Z,1.30
2022-12-31T11:22:01.002Z,1.30
2022-12-31T11:23:00.978Z,2.40
2022-12-31T11:24:01.013Z,2.60
2022-12-31T11:25:00.941Z,0.90
2022-12-31T11:26:00.946Z,1.70
2022-12-31T11:27:00.923Z,1.10
2022-12-31T11:28:00.941Z,1.30
2022-12-31T11:29:00.925Z,2.00
2022-12-31T11:30:00.903Z,0.90
2022-12-31T11:31:00.915Z,2.20
2022-12-31T11:32:00.884Z,1.50
2022-12-31T11:33:00.890Z,1.10
2022-12-31T11:34:00.862Z,2.20
2022-12-31T11:35:00.848Z,1.30
2022-12-31T11:36:00.868Z,0.80
2022-12-31T11:37:00.819Z,1.00
2022-12-31T11:38:01.060Z,3.80
2022-12-31T11:39:00.814Z,1.60
2022-12-31T11:40:00.812Z,1.40
2022-12-31T11:41:00.776Z,1.20
2022-12-31T11:42:00.752Z,0.90
2022-12-31T11:43:00.790Z,1.60
2022-12-31T11:44:00.740Z,1.10
2022-12-31T11:45:00.745Z,0.70
2022-12-31T11:46:01.046Z,2.10
2022-12-31T11:47:00.719Z,1.40
2022-12-31T11:49:00.700Z,2.80
2022-12-31T11:50:00.736Z,3.10
2022-12-31T11:51:00.679Z,1.90
2022-12-31T11:52:00.654Z,3.20
2022-12-31T11:53:00.654Z,1.10
2022-12-31T11:54:00.629Z,3.10
2022-12-31T11:55:00.627Z,1.00
2022-12-31T11:56:00.623Z,2.20
2022-12-31T11:57:00.605Z,1.60
2022-12-31T11:58:00.596Z,1.90
2022-12-31T11:59:04.752Z,2.40
2022-12-31T12:00:00.571Z,1.10
2022-12-31T12:01:00.577Z,0.60
2022-12-31T12:02:00.577Z,0.90
2022-12-31T12:03:00.626Z,1.50
2022-12-31T12:04:00.552Z,0.90
2022-12-31T12:05:03.823Z,1.10
2022-12-31T12:06:00.489Z,0.60
2022-12-31T12:07:00.481Z,3.80
2022-12-31T12:08:00.473Z,1.00
2022-12-31T12:09:00.464Z,1.70
2022-12-31T12:10:00.449Z,1.10
2022-12-31T12:11:00.444Z,2.60
2022-12-31T12:12:00.451Z,2.20
2022-12-31T12:13:00.467Z,1.80
2022-12-31T12:14:00.464Z,1.60
2022-12-31T12:15:00.385Z,1.80
2022-12-31T12:16:00.519Z,2.60
2022-12-31T12:17:04.855Z,0.70
2022-12-31T12:18:00.381Z,1.00
2022-12-31T12:19:00.353Z,3.00
2022-12-31T12:20:00.339Z,1.60
2022-12-31T12:21:06.885Z,1.70
2022-12-31T12:22:00.311Z,2.10
2022-12-31T12:23:00.323Z,1.40
2022-12-31T12:24:00.289Z,1.20
2022-12-31T12:25:00.278Z,1.30
2022-12-31T12:26:00.266Z,0.80
2022-12-31T12:27:00.255Z,0.60
2022-12-31T12:28:00.265Z,1.40
2022-12-31T12:29:00.236Z,0.90
2022-12-31T12:30:00.243Z,3.00
2022-12-31T12:31:00.304Z,2.20
2022-12-31T12:32:00.207Z,0.70
2022-12-31T12:33:00.210Z,2.20
2022-12-31T12:34:00.193Z,1.70
2022-12-31T12:35:00.184Z,0.90
2022-12-31T12:36:00.174Z,1.40
2022-12-31T12:37:00.158Z,1.60
2022-12-31T12:38:00.140Z,0.90
2022-12-31T12:39:00.159Z,0.70
2022-12-31T12:40:00.161Z,3.30
2022-12-31T12:41:00.125Z,1.20
2022-12-31T12:42:00.106Z,0.80
2022-12-31T12:43:00.139Z,2.50
2022-12-31T12:44:00.077Z,1.60
2022-12-31T12:45:00.054Z,1.10
2022-12-31T12:46:00.055Z,1.50
2022-12-31T12:47:00.114Z,2.10
2022-12-31T12:48:00.083Z,1.70
2022-12-31T12:49:00.023Z,1.80
2022-12-31T12:50:00.027Z,0.60
2022-12-31T12:51:00.014Z,2.40
2022-12-31T12:51:59.992Z,1.60
2022-12-31T12:52:59.990Z,2.40
2022-12-31T12:53:59.972Z,1.80
2022-12-31T12:54:59.953Z,3.20
2022-12-31T12:55:59.946Z,0.90
2022-12-31T12:56:59.939Z,1.90
2022-12-31T12:57:59.937Z,1.10
2022-12-31T12:58:59.899Z,2.70
2022-12-31T12:59:59.895Z,3.20
2022-12-31T13:01:00.014Z,1.30
2022-12-31T13:02:00.011Z,3.30
2022-12-31T13:02:59.984Z,2.20
2022-12-31T13:04:32.936Z,1.60
2022-12-31T13:04:59.850Z,2.20
2022-12-31T13:05:59.840Z,1.20
2022-12-31T13:06:59.821Z,1.80
2022-12-31T13:07:59.833Z,1.80
2022-12-31T13:08:59.802Z,2.30
2022-12-31T13:09:59.799Z,1.40
2022-12-31T13:10:59.785Z,2.60
2022-12-31T13:12:05.444Z,2.20
2022-12-31T13:13:59.748Z,1.70
2022-12-31T13:14:59.729Z,1.00